createdAt,value
2023-03-04T00:01:23.203Z,21.53
2023-03-04T00:03:54.051Z,20.43
2023-03-04T00:06:21.971Z,20.80
2023-03-04T00:08:52.133Z,19.60
2023-03-04T00:11:21.397Z,20.27
2023-03-04T00:13:49.266Z,23.27
2023-03-04T00:16:17.233Z,20.53
2023-03-04T00:18:45.218Z,21.60
2023-03-04T00:21:13.156Z,17.70
2023-03-04T00:23:43.331Z,22.77
2023-03-04T00:26:11.284Z,22.13
2023-03-04T00:28:40.966Z,24.30
2023-03-04T00:31:14.118Z,22.00
2023-03-04T00:33:43.511Z,24.60
2023-03-04T00:36:12.073Z,22.90
2023-03-04T00:38:40.001Z,25.80
2023-03-04T00:41:07.983Z,21.33
2023-03-04T00:43:35.955Z,16.23
2023-03-04T00:46:05.563Z,23.00
2023-03-04T00:48:33.471Z,21.20
2023-03-04T00:51:01.525Z,23.87
2023-03-04T00:53:29.544Z,20.47
2023-03-04T00:55:57.496Z,21.40
2023-03-04T00:58:25.484Z,23.30
2023-03-04T01:00:53.464Z,23.27
2023-03-04T01:03:22.767Z,33.70
2023-03-04T01:05:50.708Z,34.33
2023-03-04T01:08:18.645Z,21.73
2023-03-04T01:10:48.536Z,22.87
2023-03-04T01:13:16.504Z,27.07
2023-03-04T01:15:44.644Z,25.83
2023-03-04T01:18:12.726Z,25.80
2023-03-04T01:20:42.134Z,23.50
2023-03-04T01:23:10.048Z,26.27
2023-03-04T01:25:37.935Z,23.13
2023-03-04T01:28:06.014Z,22.20
2023-03-04T01:30:34.908Z,24.00
2023-03-04T01:33:02.789Z,27.97
2023-03-04T01:35:30.746Z,20.97
2023-03-04T01:38:00.095Z,27.03
2023-03-04T01:40:28.353Z,21.33
2023-03-04T01:42:56.492Z,27.50
2023-03-04T01:45:24.608Z,26.20
2023-03-04T01:47:52.909Z,26.10
2023-03-04T01:50:23.803Z,24.00
2023-03-04T01:52:51.878Z,22.37
2023-03-04T01:55:22.930Z,23.10
2023-03-04T01:57:52.447Z,25.67
2023-03-04T02:00:28.216Z,23.70
2023-03-04T02:02:59.448Z,24.13
2023-03-04T02:05:27.520Z,29.00
2023-03-04T02:07:56.483Z,30.73
2023-03-04T02:10:25.833Z,26.73
2023-03-04T02:12:54.297Z,29.20
2023-03-04T02:15:22.528Z,33.10
2023-03-04T02:17:50.786Z,29.47
2023-03-04T02:20:36.937Z,30.77
2023-03-04T02:23:11.326Z,31.13
2023-03-04T02:25:44.410Z,30.57
2023-03-04T02:28:13.844Z,35.07
2023-03-04T02:30:41.854Z,31.63
2023-03-04T02:33:16.103Z,30.40
2023-03-04T02:35:44.174Z,29.57
2023-03-04T02:38:15.393Z,31.63
2023-03-04T02:40:46.628Z,31.43
2023-03-04T02:43:17.147Z,30.87
2023-03-04T02:45:46.367Z,27.37
2023-03-04T02:48:15.759Z,31.03
2023-03-04T02:50:45.420Z,35.20
2023-03-04T02:53:13.464Z,31.20
2023-03-04T02:55:42.337Z,30.20
2023-03-04T02:58:10.836Z,30.67
2023-03-04T03:00:40.561Z,34.23
2023-03-04T03:03:09.479Z,35.23
2023-03-04T03:05:38.740Z,33.37
2023-03-04T03:08:08.113Z,32.20
2023-03-04T03:10:36.420Z,31.17
2023-03-04T03:13:05.288Z,27.57
2023-03-04T03:15:33.214Z,27.50
2023-03-04T03:18:02.553Z,34.57
2023-03-04T03:20:30.444Z,50.10
2023-03-04T03:22:58.372Z,38.57
2023-03-04T03:25:26.298Z,36.57
2023-03-04T03:27:54.930Z,33.40
2023-03-04T03:30:23.053Z,29.23
2023-03-04T03:32:50.928Z,33.70
2023-03-04T03:35:20.641Z,31.73
2023-03-04T03:37:49.368Z,28.90
2023-03-04T03:40:17.527Z,32.30
2023-03-04T03:42:45.872Z,26.50
2023-03-04T03:45:13.853Z,28.90
2023-03-04T03:47:41.760Z,30.67
2023-03-04T03:50:10.538Z,31.63
2023-03-04T03:52:39.846Z,36.17
2023-03-04T03:55:08.215Z,35.47
2023-03-04T03:57:36.138Z,33.43
2023-03-04T04:00:05.381Z,37.13
2023-03-04T04:02:40.326Z,31.23
2023-03-04T04:05:09.819Z,35.03
2023-03-04T04:07:39.138Z,36.83
2023-03-04T04:10:07.473Z,32.53
2023-03-04T04:12:35.579Z,32.03
2023-03-04T04:15:03.513Z,30.37
2023-03-04T04:17:31.459Z,33.50
2023-03-04T04:19:59.452Z,35.40
2023-03-04T04:22:27.414Z,37.77
2023-03-04T04:24:56.722Z,31.57
2023-03-04T04:27:27.751Z,40.33
2023-03-04T04:29:55.711Z,37.07
2023-03-04T04:32:23.770Z,34.73
2023-03-04T04:34:51.715Z,29.30
2023-03-04T04:37:19.593Z,30.80
2023-03-04T04:39:47.550Z,37.00
2023-03-04T04:42:16.799Z,35.63
2023-03-04T04:44:44.685Z,36.03
2023-03-04T04:47:12.546Z,32.37
2023-03-04T04:49:40.726Z,35.67
2023-03-04T04:52:08.591Z,36.07
2023-03-04T04:54:36.464Z,31.10
2023-03-04T04:57:04.649Z,28.43
2023-03-04T04:59:33.933Z,37.77
2023-03-04T05:02:01.778Z,31.03
2023-03-04T05:04:30.440Z,33.70
2023-03-04T05:06:58.451Z,39.60
2023-03-04T05:09:26.328Z,31.57
2023-03-04T05:11:54.626Z,38.53
2023-03-04T05:14:22.541Z,36.67
2023-03-04T05:16:52.929Z,35.03
2023-03-04T05:19:21.019Z,42.97
2023-03-04T05:21:48.933Z,45.30
2023-03-04T05:24:17.028Z,45.77
2023-03-04T05:26:44.889Z,50.97
2023-03-04T05:29:12.790Z,46.30
2023-03-04T05:31:40.740Z,48.07
2023-03-04T05:34:10.211Z,47.57
2023-03-04T05:36:38.104Z,48.73
2023-03-04T05:39:05.999Z,45.50
2023-03-04T05:41:33.948Z,54.00
2023-03-04T05:44:02.175Z,48.97
2023-03-04T05:46:33.152Z,45.80
2023-03-04T05:49:01.355Z,53.43
2023-03-04T05:51:30.596Z,46.57
2023-03-04T05:53:58.616Z,39.97
2023-03-04T05:56:26.502Z,51.17
2023-03-04T05:58:54.384Z,47.93
2023-03-04T06:01:22.230Z,45.97
2023-03-04T06:03:50.459Z,49.50
2023-03-04T06:06:18.413Z,47.53
2023-03-04T06:08:47.679Z,44.43
2023-03-04T06:11:15.601Z,44.23
2023-03-04T06:13:43.503Z,42.90
2023-03-04T06:16:11.579Z,42.53
2023-03-04T06:18:39.504Z,42.60
2023-03-04T06:21:07.897Z,38.20
2023-03-04T06:23:35.898Z,40.93
2023-03-04T06:26:10.111Z,39.77
2023-03-04T06:28:38.000Z,39.20
2023-03-04T06:31:06.616Z,44.00
2023-03-04T06:33:34.706Z,44.30
2023-03-04T06:36:02.722Z,38.07
2023-03-04T06:38:30.618Z,43.50
2023-03-04T06:40:58.823Z,47.57
2023-03-04T06:43:28.139Z,48.20
2023-03-04T06:45:56.007Z,49.70
2023-03-04T06:48:23.914Z,43.60
2023-03-04T06:51:16.977Z,48.47
2023-03-04T06:53:47.032Z,41.87
2023-03-04T06:56:20.278Z,49.30
2023-03-04T06:58:49.605Z,46.97
2023-03-04T07:01:18.834Z,53.83
2023-03-04T07:03:47.016Z,49.27
2023-03-04T07:06:16.832Z,52.20
2023-03-04T07:08:45.083Z,46.73
2023-03-04T07:11:13.540Z,53.80
2023-03-04T07:13:41.478Z,52.97
2023-03-04T07:16:12.991Z,53.73
2023-03-04T07:18:41.165Z,63.70
2023-03-04T07:21:09.380Z,52.00
2023-03-04T07:23:37.794Z,52.47
2023-03-04T07:26:06.151Z,50.07
2023-03-04T07:28:34.159Z,57.37
2023-03-04T07:31:11.349Z,52.23
2023-03-04T07:33:39.326Z,54.83
2023-03-04T07:36:07.611Z,47.87
2023-03-04T07:38:35.496Z,54.33
2023-03-04T07:41:03.380Z,49.53
2023-03-04T07:43:31.331Z,53.60
2023-03-04T07:46:02.392Z,48.87
2023-03-04T07:48:31.779Z,50.80
2023-03-04T07:51:10.864Z,56.63
2023-03-04T07:53:40.499Z,59.47
2023-03-04T07:56:09.792Z,54.90
2023-03-04T07:58:37.672Z,52.80
2023-03-04T08:01:10.645Z,51.07
2023-03-04T08:03:40.270Z,55.70
2023-03-04T08:06:08.770Z,60.03
2023-03-04T08:08:37.044Z,50.43
2023-03-04T08:11:06.410Z,57.53
2023-03-04T08:13:34.335Z,56.23
2023-03-04T08:16:02.305Z,47.27
2023-03-04T08:18:30.265Z,48.50
2023-03-04T08:20:59.556Z,46.40
2023-03-04T08:23:27.412Z,53.93
2023-03-04T08:25:55.607Z,64.90
2023-03-04T08:28:23.485Z,46.90
2023-03-04T08:30:54.681Z,50.63
2023-03-04T08:33:22.638Z,53.47
2023-03-04T08:35:50.525Z,56.00
2023-03-04T08:38:19.900Z,56.90
2023-03-04T08:40:53.501Z,53.67
2023-03-04T08:43:22.582Z,59.07
2023-03-04T08:45:50.520Z,51.33
2023-03-04T08:48:18.746Z,52.30
2023-03-04T08:50:46.832Z,51.43
2023-03-04T08:53:15.136Z,51.93
2023-03-04T08:55:44.577Z,56.73
2023-03-04T08:58:12.711Z,48.13
2023-03-04T09:00:43.946Z,57.87
2023-03-04T09:03:12.942Z,48.37
2023-03-04T09:05:41.200Z,48.90
2023-03-04T09:08:09.126Z,53.13
2023-03-04T09:10:37.051Z,48.97
2023-03-04T09:13:06.356Z,54.77
2023-03-04T09:15:35.741Z,43.57
2023-03-04T09:18:04.079Z,50.03
2023-03-04T09:20:32.637Z,46.27
2023-03-04T09:23:00.651Z,52.00
2023-03-04T09:25:28.835Z,57.23
2023-03-04T09:27:56.999Z,48.23
2023-03-04T09:30:28.021Z,46.70
2023-03-04T09:32:56.739Z,45.67
2023-03-04T09:35:25.012Z,44.77
2023-03-04T09:37:53.661Z,45.17
2023-03-04T09:40:24.303Z,46.30
2023-03-04T09:42:54.438Z,43.30
2023-03-04T09:45:24.218Z,50.17
2023-03-04T09:47:54.683Z,41.10
2023-03-04T09:50:23.910Z,41.30
2023-03-04T09:53:03.620Z,36.93
2023-03-04T09:55:36.098Z,41.90
2023-03-04T09:58:06.328Z,46.47
2023-03-04T10:00:37.491Z,42.27
2023-03-04T10:03:14.049Z,37.97
2023-03-04T10:05:44.763Z,39.87
2023-03-04T10:08:38.173Z,41.47
2023-03-04T10:11:10.985Z,40.17
2023-03-04T10:13:44.150Z,37.67
2023-03-04T10:16:14.553Z,40.10
2023-03-04T10:18:48.186Z,35.20
2023-03-04T10:21:21.102Z,35.87
2023-03-04T10:23:49.822Z,43.23
2023-03-04T10:26:20.839Z,41.33
2023-03-04T10:28:49.128Z,39.13
2023-03-04T10:31:22.918Z,36.00
2023-03-04T10:33:53.563Z,35.47
2023-03-04T10:36:36.170Z,35.03
2023-03-04T10:39:08.251Z,34.90
2023-03-04T10:41:36.272Z,39.67
2023-03-04T10:44:06.134Z,35.83
2023-03-04T10:46:34.014Z,30.97
2023-03-04T10:49:03.201Z,29.90
2023-03-04T10:51:31.699Z,31.50
2023-03-04T10:54:01.563Z,39.30
2023-03-04T10:56:36.807Z,27.23
2023-03-04T10:59:50.666Z,32.00
2023-03-04T11:02:23.306Z,32.87
2023-03-04T11:04:54.572Z,37.60
2023-03-04T11:07:23.147Z,34.50
2023-03-04T11:09:51.137Z,37.17
2023-03-04T11:12:21.774Z,46.87
2023-03-04T11:14:51.092Z,35.00
2023-03-04T11:17:22.547Z,32.20
2023-03-04T11:19:55.783Z,28.73
2023-03-04T11:22:24.947Z,43.43
2023-03-04T11:24:58.789Z,39.93
2023-03-04T11:27:35.650Z,39.87
2023-03-04T11:30:14.540Z,38.27
2023-03-04T11:32:45.362Z,37.77
2023-03-04T11:35:21.699Z,43.27
2023-03-04T11:37:55.000Z,35.90
2023-03-04T11:40:30.385Z,33.90
2023-03-04T11:43:02.832Z,38.13
2023-03-04T11:45:42.500Z,39.70
2023-03-04T11:48:15.640Z,35.70
2023-03-04T11:50:49.937Z,33.27
2023-03-04T11:53:42.163Z,36.50
2023-03-04T11:56:17.975Z,37.83
2023-03-04T11:58:56.362Z,32.50
2023-03-04T12:01:28.893Z,34.17
2023-03-04T12:04:07.785Z,32.53
2023-03-04T12:06:44.826Z,42.30
2023-03-04T12:09:29.884Z,34.07
2023-03-04T12:12:05.425Z,26.97
2023-03-04T12:14:36.186Z,38.67
2023-03-04T12:17:39.522Z,40.50
2023-03-04T12:20:28.807Z,29.87
2023-03-04T12:23:07.117Z,37.33
2023-03-04T12:25:40.858Z,42.40
2023-03-04T12:28:32.663Z,36.83
2023-03-04T12:31:09.090Z,32.27
2023-03-04T12:33:47.266Z,37.60
2023-03-04T12:36:19.601Z,34.07
2023-03-04T12:39:01.888Z,34.50
2023-03-04T12:41:45.055Z,31.93
2023-03-04T12:44:18.189Z,29.43
2023-03-04T12:46:58.907Z,30.70
2023-03-04T12:49:41.316Z,32.07
2023-03-04T12:52:16.222Z,30.23
2023-03-04T12:54:47.612Z,29.43
2023-03-04T12:57:16.739Z,24.70
2023-03-04T12:59:50.528Z,29.47
2023-03-04T13:03:01.031Z,29.27
2023-03-04T13:05:51.374Z,29.30
2023-03-04T13:08:29.706Z,32.27
2023-03-04T13:11:03.795Z,30.00
2023-03-04T13:13:39.814Z,30.27
2023-03-04T13:16:29.615Z,25.00
2023-03-04T13:18:57.597Z,28.03
2023-03-04T13:21:26.983Z,36.50
2023-03-04T13:23:55.441Z,30.80
2023-03-04T13:26:30.890Z,36.43
2023-03-04T13:29:12.343Z,33.60
2023-03-04T13:32:00.847Z,30.97
2023-03-04T13:34:49.474Z,29.53
2023-03-04T13:37:34.832Z,29.87
2023-03-04T13:40:33.522Z,28.17
2023-03-04T13:43:27.765Z,35.83
2023-03-04T13:45:56.198Z,33.80
2023-03-04T13:48:32.877Z,33.53
2023-03-04T13:51:00.862Z,32.53
2023-03-04T13:53:43.466Z,37.93
2023-03-04T13:56:22.636Z,30.53
2023-03-04T13:58:53.890Z,34.97
2023-03-04T14:01:25.870Z,32.80
2023-03-04T14:03:53.793Z,31.33
2023-03-04T14:06:23.788Z,32.50
2023-03-04T14:08:52.870Z,29.27
2023-03-04T14:11:34.622Z,35.93
2023-03-04T14:14:07.408Z,35.33
2023-03-04T14:16:39.754Z,33.30
2023-03-04T14:19:13.899Z,30.50
2023-03-04T14:21:45.993Z,30.03
2023-03-04T14:24:15.255Z,23.20
2023-03-04T14:26:43.189Z,26.13
2023-03-04T14:29:26.444Z,26.37
2023-03-04T14:31:55.400Z,30.87
2023-03-04T14:34:26.756Z,33.17
2023-03-04T14:36:54.703Z,30.90
2023-03-04T14:39:24.852Z,27.13
2023-03-04T14:41:54.566Z,27.23
2023-03-04T14:44:35.747Z,31.53
2023-03-04T14:47:11.100Z,25.40
2023-03-04T14:49:39.747Z,30.97
2023-03-04T14:52:08.074Z,26.73
2023-03-04T14:54:37.969Z,31.07
2023-03-04T14:57:26.101Z,32.50
2023-03-04T14:59:55.832Z,26.20
2023-03-04T15:02:31.373Z,27.73
2023-03-04T15:05:01.547Z,25.27
2023-03-04T15:07:35.334Z,24.50
2023-03-04T15:10:05.611Z,22.57
2023-03-04T15:12:35.742Z,21.83
2023-03-04T15:15:07.054Z,28.70
2023-03-04T15:17:38.748Z,23.80
2023-03-04T15:20:27.300Z,27.30
2023-03-04T15:23:03.126Z,28.53
2023-03-04T15:25:31.892Z,28.33
2023-03-04T15:28:02.606Z,32.30
2023-03-04T15:30:34.629Z,30.20
2023-03-04T15:33:02.706Z,29.37
2023-03-04T15:35:32.469Z,28.77
2023-03-04T15:38:00.779Z,29.53
2023-03-04T15:40:31.128Z,28.93
2023-03-04T15:43:00.968Z,30.27
2023-03-04T15:45:30.958Z,33.10
2023-03-04T15:48:00.139Z,30.70
2023-03-04T15:50:29.426Z,33.20
2023-03-04T15:53:00.028Z,32.77
2023-03-04T15:55:28.315Z,29.63
2023-03-04T15:57:58.188Z,29.13
2023-03-04T16:00:26.280Z,24.53
2023-03-04T16:02:54.147Z,31.23
2023-03-04T16:05:23.341Z,29.13
2023-03-04T16:07:52.449Z,36.80
2023-03-04T16:10:24.705Z,35.47
2023-03-04T16:12:53.098Z,34.67
2023-03-04T16:15:22.311Z,26.73
2023-03-04T16:17:50.350Z,30.63
2023-03-04T16:20:21.518Z,29.57
2023-03-04T16:22:54.136Z,32.70
2023-03-04T16:25:22.580Z,36.03
2023-03-04T16:27:52.432Z,25.03
2023-03-04T16:30:21.878Z,30.60
2023-03-04T16:32:49.832Z,33.07
2023-03-04T16:35:19.306Z,34.33
2023-03-04T16:37:47.249Z,28.77
2023-03-04T16:40:18.029Z,23.87
2023-03-04T16:42:45.911Z,30.23
2023-03-04T16:45:17.530Z,29.93
2023-03-04T16:47:45.807Z,25.00
2023-03-04T16:50:15.284Z,31.93
2023-03-04T16:52:45.560Z,30.10
2023-03-04T16:55:19.423Z,27.87
2023-03-04T16:57:47.482Z,32.00
2023-03-04T17:00:19.872Z,25.67
2023-03-04T17:02:52.929Z,25.83
2023-03-04T17:05:23.170Z,24.00
2023-03-04T17:07:50.960Z,31.50
2023-03-04T17:10:20.794Z,29.70
2023-03-04T17:12:49.790Z,26.43
2023-03-04T17:15:17.742Z,29.23
2023-03-04T17:17:45.965Z,28.13
2023-03-04T17:20:16.630Z,26.30
2023-03-04T17:22:44.948Z,25.93
2023-03-04T17:25:16.123Z,27.10
2023-03-04T17:27:45.471Z,28.10
2023-03-04T17:30:14.686Z,24.90
2023-03-04T17:32:42.494Z,24.57
2023-03-04T17:35:11.277Z,27.67
2023-03-04T17:37:39.478Z,24.33
2023-03-04T17:40:11.265Z,20.23
2023-03-04T17:42:39.141Z,20.50
2023-03-04T17:45:10.692Z,22.63
2023-03-04T17:47:39.228Z,22.87
2023-03-04T17:50:08.872Z,24.67
2023-03-04T17:52:36.689Z,29.03
2023-03-04T17:55:04.679Z,25.47
2023-03-04T17:57:32.576Z,20.67
2023-03-04T18:00:00.936Z,23.80
2023-03-04T18:02:30.352Z,17.73
2023-03-04T18:05:01.230Z,22.67
2023-03-04T18:07:29.263Z,21.37
2023-03-04T18:09:57.799Z,19.10
2023-03-04T18:12:25.998Z,19.53
2023-03-04T18:14:53.831Z,26.77
2023-03-04T18:17:21.723Z,22.40
2023-03-04T18:19:50.921Z,20.97
2023-03-04T18:22:18.818Z,20.73
2023-03-04T18:24:46.780Z,21.60
2023-03-04T18:27:14.659Z,19.90
2023-03-04T18:29:42.614Z,22.67
2023-03-04T18:32:10.508Z,20.00
2023-03-04T18:34:38.336Z,20.43
2023-03-04T18:37:07.663Z,18.80
2023-03-04T18:39:35.466Z,20.87
2023-03-04T18:42:03.459Z,20.03
2023-03-04T18:44:31.343Z,19.50
2023-03-04T18:46:59.418Z,25.80
2023-03-04T18:49:28.235Z,22.50
2023-03-04T18:51:56.060Z,21.13
2023-03-04T18:54:25.307Z,24.60
2023-03-04T18:56:54.460Z,21.77
2023-03-04T18:59:24.241Z,24.50
2023-03-04T19:01:53.265Z,20.43
2023-03-04T19:04:24.896Z,20.37
2023-03-04T19:06:53.035Z,22.97
2023-03-04T19:09:20.936Z,15.53
2023-03-04T19:11:50.198Z,19.57
2023-03-04T19:14:18.096Z,20.20
2023-03-04T19:16:49.021Z,23.80
2023-03-04T19:19:16.868Z,22.60
2023-03-04T19:21:44.764Z,24.07
2023-03-04T19:24:12.864Z,17.90
2023-03-04T19:26:42.482Z,21.50
2023-03-04T19:29:12.167Z,24.37
2023-03-04T19:31:41.491Z,30.47
2023-03-04T19:34:09.621Z,22.83
2023-03-04T19:36:37.501Z,28.37
2023-03-04T19:39:05.577Z,26.93
2023-03-04T19:41:33.517Z,29.43
2023-03-04T19:44:01.309Z,24.20
2023-03-04T19:46:32.279Z,26.23
2023-03-04T19:49:00.333Z,21.87
2023-03-04T19:51:29.130Z,20.53
2023-03-04T19:53:57.266Z,25.07
2023-03-04T19:56:25.220Z,22.03
2023-03-04T19:58:54.244Z,22.97
2023-03-04T20:01:27.819Z,28.13
2023-03-04T20:03:58.294Z,29.73
2023-03-04T20:06:27.149Z,26.10
2023-03-04T20:08:58.266Z,25.53
2023-03-04T20:11:26.603Z,25.70
2023-03-04T20:13:55.063Z,26.03
2023-03-04T20:16:22.971Z,28.13
2023-03-04T20:18:50.817Z,26.90
2023-03-04T20:21:20.154Z,25.53
2023-03-04T20:23:47.992Z,31.57
2023-03-04T20:26:16.001Z,30.43
2023-03-04T20:28:50.875Z,30.83
2023-03-04T20:31:23.850Z,33.77
2023-03-04T20:33:52.538Z,31.30
2023-03-04T20:36:23.296Z,29.00
2023-03-04T20:39:01.519Z,32.93
2023-03-04T20:41:29.926Z,34.70
2023-03-04T20:43:57.790Z,32.13
2023-03-04T20:46:30.827Z,27.83
2023-03-04T20:49:00.357Z,32.70
2023-03-04T20:51:30.192Z,27.43
2023-03-04T20:53:58.564Z,31.37
2023-03-04T20:56:27.020Z,27.37
2023-03-04T20:58:56.064Z,29.73
2023-03-04T21:01:24.446Z,24.07
2023-03-04T21:03:52.396Z,31.93
2023-03-04T21:06:20.465Z,28.73
2023-03-04T21:08:49.644Z,27.93
2023-03-04T21:11:19.902Z,29.20
2023-03-04T21:13:53.819Z,30.93
2023-03-04T21:16:21.748Z,33.20
2023-03-04T21:18:49.832Z,27.80
2023-03-04T21:21:22.072Z,27.30
2023-03-04T21:23:51.917Z,31.70
2023-03-04T21:26:20.709Z,29.53
2023-03-04T21:28:49.137Z,32.13
2023-03-04T21:31:18.302Z,30.43
2023-03-04T21:33:46.902Z,27.37
2023-03-04T21:36:15.127Z,33.27
2023-03-04T21:38:43.713Z,28.27
2023-03-04T21:41:14.393Z,26.17
2023-03-04T21:43:42.282Z,26.23
2023-03-04T21:46:10.961Z,38.67
2023-03-04T21:48:38.999Z,28.37
2023-03-04T21:51:12.773Z,26.03
2023-03-04T21:53:41.033Z,33.50
2023-03-04T21:56:08.989Z,28.87
2023-03-04T21:58:41.561Z,26.00
2023-03-04T22:01:13.163Z,33.67
2023-03-04T22:03:41.093Z,28.30
2023-03-04T22:06:11.029Z,30.67
2023-03-04T22:08:39.879Z,28.60
2023-03-04T22:11:09.146Z,31.23
2023-03-04T22:13:39.009Z,29.50
2023-03-04T22:16:07.813Z,32.77
2023-03-04T22:18:36.288Z,31.33
2023-03-04T22:21:06.137Z,26.43
2023-03-04T22:23:34.576Z,25.93
2023-03-04T22:26:03.438Z,27.53
2023-03-04T22:28:31.805Z,27.63
2023-03-04T22:31:01.956Z,27.20
2023-03-04T22:33:31.253Z,25.87
2023-03-04T22:35:59.976Z,31.37
2023-03-04T22:38:27.955Z,29.80
2023-03-04T22:40:55.851Z,32.10
2023-03-04T22:43:23.762Z,33.00
2023-03-04T22:45:51.627Z,31.20
2023-03-04T22:48:21.159Z,33.33
2023-03-04T22:50:49.010Z,35.40
2023-03-04T22:53:16.929Z,30.23
2023-03-04T22:55:44.797Z,29.73
2023-03-04T22:58:12.872Z,32.60
2023-03-04T23:00:40.776Z,31.30
2023-03-04T23:03:09.699Z,31.47
2023-03-04T23:05:39.553Z,33.67
2023-03-04T23:08:07.648Z,30.93
2023-03-04T23:10:36.070Z,38.67
2023-03-04T23:13:04.881Z,32.07
2023-03-04T23:15:33.428Z,29.60
2023-03-04T23:18:02.069Z,38.37
2023-03-04T23:20:30.482Z,28.03
2023-03-04T23:23:00.540Z,33.10
2023-03-04T23:25:29.159Z,30.57
2023-03-04T23:27:57.840Z,29.80
2023-03-04T23:30:26.412Z,34.50
2023-03-04T23:32:56.617Z,31.17
2023-03-04T23:35:25.108Z,30.33
2023-03-04T23:37:53.441Z,33.57
2023-03-04T23:40:23.359Z,36.50
2023-03-04T23:42:52.023Z,32.13
2023-03-04T23:45:20.613Z,29.20
2023-03-04T23:47:48.922Z,34.53
2023-03-04T23:50:17.818Z,29.33
2023-03-04T23:52:46.115Z,27.70
2023-03-04T23:55:16.805Z,28.60
2023-03-04T23:57:47.750Z,28.73
